createdAt,value
2023-12-24T00:02:26.914Z,75.95
2023-12-24T00:04:54.576Z,76.00
2023-12-24T00:07:22.212Z,75.95
2023-12-24T00:09:50.186Z,75.92
2023-12-24T00:12:17.846Z,75.81
2023-12-24T00:14:45.402Z,76.04
2023-12-24T00:17:12.990Z,76.02
2023-12-24T00:19:40.659Z,76.00
2023-12-24T00:22:08.177Z,76.01
2023-12-24T00:24:35.743Z,75.95
2023-12-24T00:27:03.293Z,75.74
2023-12-24T00:29:30.911Z,75.83
2023-12-24T00:31:58.944Z,76.02
2023-12-24T00:34:26.592Z,76.10
2023-12-24T00:36:54.255Z,76.19
2023-12-24T00:39:22.021Z,76.32
2023-12-24T00:41:49.571Z,76.34
2023-12-24T00:44:17.182Z,76.24
2023-12-24T00:46:44.906Z,76.29
2023-12-24T00:49:12.530Z,76.29
2023-12-24T00:51:40.313Z,76.26
2023-12-24T00:54:07.870Z,76.22
2023-12-24T00:56:35.573Z,76.44
2023-12-24T00:59:03.324Z,76.57
2023-12-24T01:01:31.056Z,76.40
2023-12-24T01:03:58.708Z,76.39
2023-12-24T01:06:26.646Z,76.40
2023-12-24T01:08:54.359Z,76.36
2023-12-24T01:11:22.062Z,76.35
2023-12-24T01:13:49.477Z,76.52
2023-12-24T01:16:17.136Z,76.45
2023-12-24T01:18:44.798Z,76.40
2023-12-24T01:21:12.560Z,76.48
2023-12-24T01:23:40.349Z,76.47
2023-12-24T01:26:08.106Z,76.73
2023-12-24T01:28:35.651Z,76.59
2023-12-24T01:31:03.377Z,76.67
2023-12-24T01:33:31.123Z,76.73
2023-12-24T01:35:58.674Z,76.73
2023-12-24T01:38:26.520Z,76.80
2023-12-24T01:40:54.157Z,76.82
2023-12-24T01:43:21.723Z,76.70
2023-12-24T01:45:49.378Z,76.67
2023-12-24T01:48:16.980Z,76.60
2023-12-24T01:50:44.818Z,76.66
2023-12-24T01:53:12.496Z,76.63
2023-12-24T01:55:40.264Z,76.38
2023-12-24T01:58:07.786Z,76.67
2023-12-24T02:00:35.717Z,76.67
2023-12-24T02:03:03.442Z,76.60
2023-12-24T02:05:31.137Z,76.67
2023-12-24T02:07:58.756Z,76.54
2023-12-24T02:10:26.296Z,76.68
2023-12-24T02:12:53.979Z,76.61
2023-12-24T02:15:21.723Z,76.54
2023-12-24T02:17:49.459Z,76.61
2023-12-24T02:20:17.504Z,76.58
2023-12-24T02:22:45.327Z,76.63
2023-12-24T02:25:12.883Z,76.55
2023-12-24T02:27:40.565Z,76.70
2023-12-24T02:30:08.227Z,76.65
2023-12-24T02:32:35.817Z,76.62
2023-12-24T02:35:03.569Z,76.63
2023-12-24T02:37:31.291Z,76.62
2023-12-24T02:39:58.851Z,76.57
2023-12-24T02:42:26.714Z,76.67
2023-12-24T02:44:54.171Z,76.64
2023-12-24T02:47:21.770Z,76.54
2023-12-24T02:49:49.587Z,76.64
2023-12-24T02:52:17.167Z,76.55
2023-12-24T02:54:44.805Z,76.63
2023-12-24T02:57:12.377Z,76.72
2023-12-24T02:59:40.024Z,76.49
2023-12-24T03:02:08.041Z,76.55
2023-12-24T03:04:35.660Z,76.87
2023-12-24T03:07:03.233Z,76.89
2023-12-24T03:09:30.881Z,76.81
2023-12-24T03:11:58.454Z,77.16
2023-12-24T03:14:26.021Z,77.03
2023-12-24T03:16:53.666Z,76.90
2023-12-24T03:19:21.306Z,77.02
2023-12-24T03:21:49.396Z,76.88
2023-12-24T03:24:16.962Z,77.01
2023-12-24T03:26:44.648Z,76.89
2023-12-24T03:29:12.204Z,76.73
2023-12-24T03:31:39.849Z,76.83
2023-12-24T03:34:07.474Z,76.81
2023-12-24T03:36:35.263Z,76.67
2023-12-24T03:39:03.953Z,76.69
2023-12-24T03:41:31.669Z,76.71
2023-12-24T03:43:59.405Z,76.67
2023-12-24T03:46:27.025Z,76.65
2023-12-24T03:48:54.689Z,76.60
2023-12-24T03:51:22.455Z,76.74
2023-12-24T03:53:49.875Z,76.76
2023-12-24T03:56:17.488Z,76.91
2023-12-24T03:58:45.032Z,76.81
2023-12-24T04:01:12.781Z,76.79
2023-12-24T04:03:40.781Z,76.80
2023-12-24T04:06:08.469Z,77.02
2023-12-24T04:08:36.086Z,77.36
2023-12-24T04:11:03.774Z,77.47
2023-12-24T04:13:31.405Z,77.47
2023-12-24T04:15:58.959Z,77.40
2023-12-24T04:18:26.631Z,77.64
2023-12-24T04:20:54.289Z,77.56
2023-12-24T04:23:22.070Z,77.38
2023-12-24T04:25:50.128Z,77.47
2023-12-24T04:28:17.786Z,77.28
2023-12-24T04:30:45.495Z,77.26
2023-12-24T04:33:13.237Z,77.44
2023-12-24T04:35:40.955Z,77.57
2023-12-24T04:38:08.745Z,77.66
2023-12-24T04:40:36.407Z,77.97
2023-12-24T04:43:03.865Z,78.01
2023-12-24T04:45:31.411Z,78.17
2023-12-24T04:47:59.314Z,78.17
2023-12-24T04:50:26.993Z,78.31
2023-12-24T04:52:54.967Z,78.51
2023-12-24T04:55:22.782Z,78.56
2023-12-24T04:57:50.440Z,78.48
2023-12-24T05:00:17.992Z,78.49
2023-12-24T05:02:45.659Z,78.52
2023-12-24T05:05:13.623Z,78.64
2023-12-24T05:07:41.290Z,78.47
2023-12-24T05:10:08.962Z,78.49
2023-12-24T05:12:36.618Z,78.49
2023-12-24T05:15:04.169Z,78.53
2023-12-24T05:17:31.795Z,78.39
2023-12-24T05:19:59.459Z,78.53
2023-12-24T05:22:27.159Z,78.53
2023-12-24T05:24:54.941Z,78.54
2023-12-24T05:27:22.897Z,78.57
2023-12-24T05:29:50.439Z,78.53
2023-12-24T05:32:18.040Z,78.37
2023-12-24T05:34:45.567Z,78.37
2023-12-24T05:37:13.115Z,78.41
2023-12-24T05:39:40.786Z,78.53
2023-12-24T05:42:08.342Z,78.54
2023-12-24T05:44:36.019Z,78.72
2023-12-24T05:47:03.597Z,78.71
2023-12-24T05:49:31.646Z,78.74
2023-12-24T05:51:59.206Z,78.82
2023-12-24T05:54:26.849Z,78.84
2023-12-24T05:56:54.404Z,78.78
2023-12-24T05:59:22.100Z,78.74
2023-12-24T06:01:49.630Z,78.82
2023-12-24T06:04:17.178Z,78.82
2023-12-24T06:06:45.117Z,78.97
2023-12-24T06:09:12.846Z,78.89
2023-12-24T06:11:40.662Z,78.92
2023-12-24T06:14:08.396Z,79.05
2023-12-24T06:16:36.100Z,79.11
2023-12-24T06:19:03.830Z,79.17
2023-12-24T06:21:31.629Z,79.20
2023-12-24T06:23:59.201Z,79.29
2023-12-24T06:26:26.827Z,79.36
2023-12-24T06:28:54.918Z,79.35
2023-12-24T06:31:22.478Z,79.45
2023-12-24T06:33:49.983Z,79.36
2023-12-24T06:36:17.700Z,79.47
2023-12-24T06:38:45.424Z,79.39
2023-12-24T06:41:13.063Z,79.40
2023-12-24T06:43:40.594Z,79.42
2023-12-24T06:46:08.252Z,79.54
2023-12-24T06:48:36.011Z,79.49
2023-12-24T06:51:03.669Z,79.54
2023-12-24T06:53:31.354Z,79.44
2023-12-24T06:55:58.997Z,79.66
2023-12-24T06:58:26.563Z,79.71
2023-12-24T07:00:54.236Z,79.83
2023-12-24T07:03:21.797Z,79.75
2023-12-24T07:05:49.506Z,79.69
2023-12-24T07:08:17.569Z,79.69
2023-12-24T07:10:45.166Z,79.67
2023-12-24T07:13:12.827Z,79.66
2023-12-24T07:15:40.394Z,79.63
2023-12-24T07:18:08.151Z,79.63
2023-12-24T07:20:35.905Z,79.72
2023-12-24T07:23:03.580Z,79.73
2023-12-24T07:25:31.309Z,79.68
2023-12-24T07:27:58.891Z,79.64
2023-12-24T07:30:26.490Z,79.63
2023-12-24T07:32:54.481Z,79.59
2023-12-24T07:35:22.678Z,79.62
2023-12-24T07:37:50.485Z,79.75
2023-12-24T07:40:18.119Z,79.62
2023-12-24T07:42:45.697Z,79.54
2023-12-24T07:45:13.354Z,79.52
2023-12-24T07:47:41.130Z,79.46
2023-12-24T07:50:09.038Z,79.34
2023-12-24T07:52:36.739Z,79.23
2023-12-24T07:55:04.606Z,79.01
2023-12-24T07:57:32.284Z,79.08
2023-12-24T07:59:59.820Z,78.92
2023-12-24T08:02:27.399Z,78.73
2023-12-24T08:04:54.984Z,78.45
2023-12-24T08:07:22.644Z,78.63
2023-12-24T08:09:50.161Z,78.57
2023-12-24T08:12:17.719Z,78.69
2023-12-24T08:14:45.694Z,78.56
2023-12-24T08:17:13.337Z,78.44
2023-12-24T08:19:41.117Z,78.20
2023-12-24T08:22:08.677Z,78.11
2023-12-24T08:24:36.340Z,78.05
2023-12-24T08:27:04.013Z,77.96
2023-12-24T08:29:31.668Z,78.05
2023-12-24T08:31:59.329Z,78.10
2023-12-24T08:34:26.914Z,78.16
2023-12-24T08:36:54.954Z,78.07
2023-12-24T08:39:22.517Z,78.12
2023-12-24T08:41:50.170Z,78.13
2023-12-24T08:44:17.787Z,78.14
2023-12-24T08:46:45.595Z,78.08
2023-12-24T08:49:13.200Z,77.96
2023-12-24T08:51:41.025Z,77.53
2023-12-24T08:54:08.572Z,77.12
2023-12-24T08:56:36.597Z,77.08
2023-12-24T08:59:04.249Z,77.29
2023-12-24T09:01:31.972Z,77.08
2023-12-24T09:03:59.606Z,76.57
2023-12-24T09:06:27.213Z,76.54
2023-12-24T09:08:54.858Z,76.47
2023-12-24T09:11:22.534Z,76.29
2023-12-24T09:13:49.870Z,76.36
2023-12-24T09:16:17.424Z,75.90
2023-12-24T09:18:45.504Z,75.83
2023-12-24T09:21:13.162Z,75.58
2023-12-24T09:23:40.890Z,75.38
2023-12-24T09:26:08.640Z,75.48
2023-12-24T09:28:36.159Z,75.66
2023-12-24T09:31:03.821Z,75.31
2023-12-24T09:33:31.693Z,75.32
2023-12-24T09:35:59.356Z,75.19
2023-12-24T09:38:26.965Z,75.20
2023-12-24T09:40:54.657Z,75.02
2023-12-24T09:43:22.629Z,74.92
2023-12-24T09:45:50.180Z,74.70
2023-12-24T09:48:17.955Z,74.48
2023-12-24T09:50:46.974Z,74.22
2023-12-24T09:53:15.135Z,74.09
2023-12-24T09:55:42.785Z,73.73
2023-12-24T09:58:10.436Z,74.04
2023-12-24T10:00:38.043Z,74.05
2023-12-24T10:03:05.749Z,73.97
2023-12-24T10:05:33.617Z,73.96
2023-12-24T10:08:01.485Z,73.50
2023-12-24T10:10:29.041Z,73.49
2023-12-24T10:12:56.715Z,73.19
2023-12-24T10:15:24.369Z,72.81
2023-12-24T10:17:52.139Z,72.56
2023-12-24T10:20:19.929Z,72.51
2023-12-24T10:22:49.392Z,72.37
2023-12-24T10:25:17.881Z,72.39
2023-12-24T10:27:45.536Z,72.60
2023-12-24T10:30:13.367Z,72.57
2023-12-24T10:32:41.487Z,72.56
2023-12-24T10:35:09.380Z,72.77
2023-12-24T10:37:37.023Z,73.11
2023-12-24T10:40:04.667Z,73.04
2023-12-24T10:42:32.221Z,72.88
2023-12-24T10:44:59.801Z,72.93
2023-12-24T10:47:27.809Z,72.67
2023-12-24T10:49:55.620Z,72.40
2023-12-24T10:52:23.174Z,72.30
2023-12-24T10:54:50.841Z,72.02
2023-12-24T10:57:18.397Z,71.98
2023-12-24T10:59:46.013Z,72.12
2023-12-24T11:02:13.761Z,72.31
2023-12-24T11:04:41.685Z,72.32
2023-12-24T11:07:09.348Z,71.86
2023-12-24T11:09:36.923Z,71.79
2023-12-24T11:12:04.590Z,71.71
2023-12-24T11:14:32.206Z,72.17
2023-12-24T11:16:59.999Z,71.49
2023-12-24T11:19:27.690Z,71.20
2023-12-24T11:21:55.527Z,70.69
2023-12-24T11:24:23.090Z,70.68
2023-12-24T11:26:51.158Z,70.59
2023-12-24T11:29:18.841Z,70.51
2023-12-24T11:31:46.579Z,70.27
2023-12-24T11:34:14.205Z,70.22
2023-12-24T11:36:42.022Z,70.25
2023-12-24T11:39:09.681Z,70.04
2023-12-24T11:41:37.264Z,70.12
2023-12-24T11:44:04.970Z,70.12
2023-12-24T11:46:32.651Z,70.24
2023-12-24T11:49:00.661Z,70.15
2023-12-24T11:51:28.296Z,70.40
2023-12-24T11:53:55.736Z,69.95
2023-12-24T11:56:23.339Z,70.33
2023-12-24T11:58:51.068Z,70.04
2023-12-24T12:01:18.716Z,70.02
2023-12-24T12:03:46.217Z,70.60
2023-12-24T12:06:13.946Z,70.32
2023-12-24T12:08:41.626Z,70.20
2023-12-24T12:11:09.617Z,70.43
2023-12-24T12:13:37.234Z,70.63
2023-12-24T12:16:04.899Z,70.80
2023-12-24T12:18:32.500Z,70.74
2023-12-24T12:21:00.215Z,70.78
2023-12-24T12:23:27.823Z,70.75
2023-12-24T12:25:55.529Z,70.88
2023-12-24T12:28:23.095Z,70.57
2023-12-24T12:30:50.768Z,70.35
2023-12-24T12:33:18.722Z,70.53
2023-12-24T12:35:46.631Z,70.61
2023-12-24T12:38:14.291Z,70.85
2023-12-24T12:40:47.225Z,70.99
2023-12-24T12:43:16.951Z,71.39
2023-12-24T12:45:44.518Z,71.46
2023-12-24T12:48:12.322Z,71.30
2023-12-24T12:50:40.232Z,71.42
2023-12-24T12:53:08.081Z,71.68
2023-12-24T12:55:35.758Z,71.94
2023-12-24T12:58:03.318Z,71.89
2023-12-24T13:00:30.879Z,72.01
2023-12-24T13:02:58.649Z,72.53
2023-12-24T13:05:26.559Z,72.59
2023-12-24T13:07:54.376Z,72.73
2023-12-24T13:10:22.036Z,72.77
2023-12-24T13:12:50.114Z,73.05
2023-12-24T13:15:18.079Z,72.96
2023-12-24T13:17:45.764Z,73.50
2023-12-24T13:20:13.529Z,73.47
2023-12-24T13:22:41.072Z,73.51
2023-12-24T13:25:08.729Z,73.64
2023-12-24T13:27:36.488Z,74.17
2023-12-24T13:30:04.165Z,74.14
2023-12-24T13:32:31.887Z,74.34
2023-12-24T13:34:59.779Z,74.34
2023-12-24T13:37:27.336Z,74.42
2023-12-24T13:39:54.995Z,74.53
2023-12-24T13:42:22.572Z,74.65
2023-12-24T13:44:50.241Z,75.02
2023-12-24T13:47:18.011Z,75.48
2023-12-24T13:49:45.549Z,75.60
2023-12-24T13:52:13.104Z,75.75
2023-12-24T13:54:40.763Z,75.88
2023-12-24T13:57:08.323Z,76.18
2023-12-24T13:59:35.998Z,75.85
2023-12-24T14:02:04.250Z,76.21
2023-12-24T14:04:31.918Z,76.24
2023-12-24T14:06:59.484Z,76.04
2023-12-24T14:09:27.190Z,76.11
2023-12-24T14:11:54.795Z,76.14
2023-12-24T14:14:22.377Z,76.56
2023-12-24T14:16:50.035Z,76.76
2023-12-24T14:19:17.625Z,76.74
2023-12-24T14:21:45.232Z,76.81
2023-12-24T14:24:12.811Z,77.06
2023-12-24T14:26:40.497Z,77.43
2023-12-24T14:29:08.238Z,77.12
2023-12-24T14:31:35.903Z,77.46
2023-12-24T14:34:04.020Z,77.53
2023-12-24T14:36:31.823Z,77.43
2023-12-24T14:38:59.491Z,77.61
2023-12-24T14:41:27.190Z,77.39
2023-12-24T14:43:54.603Z,77.27
2023-12-24T14:46:22.173Z,77.45
2023-12-24T14:48:49.923Z,77.28
2023-12-24T14:51:17.692Z,77.41
2023-12-24T14:53:45.418Z,77.65
2023-12-24T14:56:13.081Z,77.79
2023-12-24T14:58:41.185Z,77.62
2023-12-24T15:01:08.742Z,77.63
2023-12-24T15:03:36.414Z,77.83
2023-12-24T15:06:04.087Z,77.89
2023-12-24T15:08:31.980Z,77.97
2023-12-24T15:10:59.486Z,77.80
2023-12-24T15:13:27.272Z,77.69
2023-12-24T15:15:54.925Z,78.18
2023-12-24T15:18:22.673Z,78.21
2023-12-24T15:20:50.468Z,77.98
2023-12-24T15:23:18.705Z,77.99
2023-12-24T15:25:46.377Z,77.80
2023-12-24T15:28:13.934Z,77.61
2023-12-24T15:30:41.546Z,77.95
2023-12-24T15:33:09.468Z,77.41
2023-12-24T15:35:37.239Z,77.55
2023-12-24T15:38:04.994Z,77.41
2023-12-24T15:40:32.576Z,77.40
2023-12-24T15:43:00.287Z,77.41
2023-12-24T15:45:28.082Z,77.22
2023-12-24T15:47:55.901Z,77.38
2023-12-24T15:50:23.663Z,77.30
2023-12-24T15:52:51.452Z,77.87
2023-12-24T15:55:19.233Z,77.98
2023-12-24T15:57:46.788Z,77.92
2023-12-24T16:00:14.461Z,77.91
2023-12-24T16:02:42.084Z,78.29
2023-12-24T16:05:09.893Z,77.86
2023-12-24T16:07:37.531Z,78.02
2023-12-24T16:10:05.136Z,78.19
2023-12-24T16:12:32.902Z,77.92
2023-12-24T16:15:00.625Z,78.11
2023-12-24T16:17:28.235Z,78.28
2023-12-24T16:19:55.841Z,78.29
2023-12-24T16:22:23.399Z,78.41
2023-12-24T16:24:51.780Z,78.49
2023-12-24T16:27:19.350Z,78.48
2023-12-24T16:29:46.983Z,78.34
2023-12-24T16:32:14.684Z,77.62
2023-12-24T16:34:42.291Z,77.82
2023-12-24T16:37:09.986Z,78.07
2023-12-24T16:39:37.564Z,77.94
2023-12-24T16:42:05.215Z,77.70
2023-12-24T16:44:32.792Z,77.75
2023-12-24T16:47:00.733Z,77.91
2023-12-24T16:49:28.370Z,77.69
2023-12-24T16:51:56.171Z,77.83
2023-12-24T16:54:23.716Z,77.80
2023-12-24T16:56:51.483Z,77.46
2023-12-24T16:59:19.267Z,77.32
2023-12-24T17:01:46.914Z,77.28
2023-12-24T17:04:15.259Z,77.37
2023-12-24T17:06:43.658Z,77.39
2023-12-24T17:09:11.214Z,77.42
2023-12-24T17:11:38.936Z,77.35
2023-12-24T17:14:06.449Z,77.28
2023-12-24T17:16:33.993Z,77.20
2023-12-24T17:19:01.712Z,77.13
2023-12-24T17:21:29.435Z,77.18
2023-12-24T17:23:56.791Z,77.26
2023-12-24T17:26:24.463Z,77.29
2023-12-24T17:28:51.985Z,77.18
2023-12-24T17:31:19.862Z,77.20
2023-12-24T17:33:47.676Z,77.30
2023-12-24T17:36:15.583Z,77.33
2023-12-24T17:38:43.209Z,77.36
2023-12-24T17:41:10.948Z,77.42
2023-12-24T17:43:38.492Z,77.25
2023-12-24T17:46:06.043Z,77.38
2023-12-24T17:48:33.805Z,77.31
2023-12-24T17:51:01.699Z,77.25
2023-12-24T17:53:29.245Z,77.36
2023-12-24T17:55:56.901Z,77.05
2023-12-24T17:58:24.543Z,77.10
2023-12-24T18:00:52.147Z,77.01
2023-12-24T18:03:19.905Z,77.11
2023-12-24T18:05:47.774Z,77.19
2023-12-24T18:08:15.679Z,77.05
2023-12-24T18:10:43.377Z,77.21
2023-12-24T18:13:11.020Z,77.15
2023-12-24T18:15:38.887Z,76.95
2023-12-24T18:18:06.752Z,77.02
2023-12-24T18:20:34.538Z,76.95
2023-12-24T18:23:02.089Z,77.00
2023-12-24T18:25:29.734Z,77.22
2023-12-24T18:27:57.297Z,77.18
2023-12-24T18:30:24.976Z,77.15
2023-12-24T18:32:52.921Z,77.05
2023-12-24T18:35:20.913Z,76.97
2023-12-24T18:37:48.877Z,76.99
2023-12-24T18:40:16.531Z,77.02
2023-12-24T18:42:44.206Z,77.00
2023-12-24T18:45:11.857Z,76.97
2023-12-24T18:47:39.514Z,76.99
2023-12-24T18:50:07.177Z,76.93
2023-12-24T18:52:34.832Z,76.96
2023-12-24T18:55:02.395Z,76.91
2023-12-24T18:57:30.261Z,77.12
2023-12-24T18:59:57.843Z,76.94
2023-12-24T19:02:25.644Z,77.20
2023-12-24T19:04:53.370Z,77.46
2023-12-24T19:07:21.114Z,77.27
2023-12-24T19:09:48.804Z,77.28
2023-12-24T19:12:17.094Z,77.22
2023-12-24T19:14:45.020Z,77.16
2023-12-24T19:17:12.782Z,77.43
2023-12-24T19:19:41.074Z,77.36
2023-12-24T19:22:09.326Z,77.23
2023-12-24T19:24:36.885Z,77.40
2023-12-24T19:27:04.447Z,77.40
2023-12-24T19:29:32.076Z,77.18
2023-12-24T19:31:59.771Z,77.24
2023-12-24T19:34:27.448Z,77.21
2023-12-24T19:36:54.987Z,77.18
2023-12-24T19:39:22.645Z,77.55
2023-12-24T19:41:50.525Z,77.59
2023-12-24T19:44:18.219Z,77.37
2023-12-24T19:46:45.731Z,77.49
2023-12-24T19:49:13.984Z,77.51
2023-12-24T19:51:42.588Z,77.53
2023-12-24T19:54:10.268Z,77.48
2023-12-24T19:56:37.828Z,77.51
2023-12-24T19:59:05.374Z,77.23
2023-12-24T20:01:38.663Z,77.22
2023-12-24T20:04:13.254Z,77.27
2023-12-24T20:06:41.237Z,77.26
2023-12-24T20:09:09.045Z,77.31
2023-12-24T20:11:36.854Z,77.30
2023-12-24T20:14:04.348Z,76.93
2023-12-24T20:16:31.967Z,77.23
2023-12-24T20:18:59.691Z,76.98
2023-12-24T20:21:27.758Z,76.97
2023-12-24T20:23:55.833Z,76.97
2023-12-24T20:26:23.536Z,77.10
2023-12-24T20:28:51.260Z,76.90
2023-12-24T20:31:18.904Z,77.01
2023-12-24T20:33:49.159Z,77.05
2023-12-24T20:36:17.715Z,77.04
2023-12-24T20:38:45.404Z,76.87
2023-12-24T20:41:13.115Z,76.54
2023-12-24T20:43:40.823Z,76.44
2023-12-24T20:46:08.450Z,76.61
2023-12-24T20:48:36.455Z,76.70
2023-12-24T20:51:04.558Z,76.84
2023-12-24T20:53:32.285Z,76.88
2023-12-24T20:55:59.913Z,76.70
2023-12-24T20:58:27.573Z,77.05
2023-12-24T21:00:55.230Z,77.57
2023-12-24T21:03:23.159Z,77.86
2023-12-24T21:05:51.021Z,78.20
2023-12-24T21:08:18.919Z,78.30
2023-12-24T21:10:46.916Z,78.71
2023-12-24T21:13:14.575Z,78.92
2023-12-24T21:15:42.132Z,78.85
2023-12-24T21:18:09.868Z,78.99
2023-12-24T21:20:37.583Z,79.33
2023-12-24T21:23:05.218Z,79.64
2023-12-24T21:25:32.768Z,79.48
2023-12-24T21:28:00.454Z,79.68
2023-12-24T21:30:28.112Z,79.53
2023-12-24T21:32:56.215Z,79.94
2023-12-24T21:35:24.034Z,79.74
2023-12-24T21:37:51.796Z,79.86
2023-12-24T21:40:19.553Z,79.58
2023-12-24T21:42:47.120Z,79.80
2023-12-24T21:45:14.673Z,79.71
2023-12-24T21:47:42.541Z,80.16
2023-12-24T21:50:10.202Z,80.49
2023-12-24T21:52:37.755Z,80.49
2023-12-24T21:55:05.419Z,80.25
2023-12-24T21:57:32.985Z,80.22
2023-12-24T22:00:00.652Z,80.43
2023-12-24T22:02:28.326Z,80.37
2023-12-24T22:04:56.028Z,80.50
2023-12-24T22:07:23.748Z,80.68
2023-12-24T22:09:51.284Z,80.30
2023-12-24T22:12:19.160Z,80.50
2023-12-24T22:14:46.805Z,80.63
2023-12-24T22:17:14.509Z,80.56
2023-12-24T22:19:42.127Z,80.77
2023-12-24T22:22:09.798Z,80.76
2023-12-24T22:24:37.475Z,80.79
2023-12-24T22:27:05.030Z,80.74
2023-12-24T22:29:32.690Z,80.92
2023-12-24T22:32:00.261Z,80.91
2023-12-24T22:34:27.893Z,80.96
2023-12-24T22:36:55.557Z,81.14
2023-12-24T22:39:23.114Z,81.48
2023-12-24T22:41:50.940Z,81.81
2023-12-24T22:44:18.770Z,81.57
2023-12-24T22:46:46.309Z,81.42
2023-12-24T22:49:14.059Z,81.59
2023-12-24T22:51:41.831Z,81.55
2023-12-24T22:54:09.417Z,81.29
2023-12-24T22:56:37.145Z,81.33
2023-12-24T22:59:04.817Z,81.15
2023-12-24T23:01:32.481Z,81.19
2023-12-24T23:03:59.987Z,81.20
2023-12-24T23:06:27.864Z,81.17
2023-12-24T23:08:55.690Z,80.97
2023-12-24T23:11:23.465Z,80.64
2023-12-24T23:13:51.191Z,80.59
2023-12-24T23:16:19.065Z,80.55
2023-12-24T23:18:46.828Z,80.47
2023-12-24T23:21:14.503Z,80.30
2023-12-24T23:23:42.090Z,80.27
2023-12-24T23:26:09.808Z,80.27
2023-12-24T23:28:37.372Z,80.08
2023-12-24T23:31:05.307Z,80.04
2023-12-24T23:33:33.080Z,79.82
2023-12-24T23:36:08.755Z,79.88
2023-12-24T23:38:41.076Z,79.73
2023-12-24T23:41:08.874Z,79.52
2023-12-24T23:43:39.425Z,79.61
2023-12-24T23:46:08.505Z,79.34
2023-12-24T23:48:36.201Z,79.20
2023-12-24T23:51:03.972Z,79.25
2023-12-24T23:53:31.758Z,78.83
2023-12-24T23:55:59.477Z,78.97
2023-12-24T23:58:27.426Z,78.86
